Time;durP1;ratioP1;P1;durP2;ratioP2;P2;SDS_P1;SDS_P2;PMS_P1;PMS_P2;Temp;Humidity;BMP_temperature;BMP_pressure;BME280_temperature;BME280_humidity;BME280_pressure;Samples;Min_cycle;Max_cycle;Signal;HPM_P1;HPM_P2
2021/08/23 00:00:28;;;;;;;6.15;5.47;;;;;;;25.95;46.34;99759.75;5033845;28;20514;-88
2021/08/23 00:02:55;;;;;;;6.20;4.80;;;;;;;25.93;46.31;99755.59;5033732;28;20054;-87
2021/08/23 00:05:21;;;;;;;6.07;5.47;;;;;;;25.84;46.35;99741.56;5034161;28;20041;-88
2021/08/23 00:07:48;;;;;;;5.97;5.03;;;;;;;25.96;46.15;99753.41;5033654;28;20459;-88
2021/08/23 00:10:15;;;;;;;6.68;5.40;;;;;;;25.88;46.14;99750.81;5034002;28;20046;-88
2021/08/23 00:12:42;;;;;;;7.30;4.97;;;;;;;25.85;46.34;99748.56;5033337;28;20077;-88
2021/08/23 00:15:09;;;;;;;8.05;5.70;;;;;;;25.82;46.11;99746.25;5033733;28;20503;-88
2021/08/23 00:17:36;;;;;;;6.18;5.18;;;;;;;25.82;46.17;99748.91;5032765;28;20462;-88
2021/08/23 00:20:04;;;;;;;5.50;4.65;;;;;;;25.75;46.28;99746.16;5033340;28;20403;-88
2021/08/23 00:22:33;;;;;;;6.03;5.38;;;;;;;25.78;46.21;99744.97;5033616;28;20080;-87
2021/08/23 00:25:00;;;;;;;6.57;4.63;;;;;;;25.70;46.39;99748.53;5032015;28;20045;-88
2021/08/23 00:27:30;;;;;;;7.60;5.32;;;;;;;25.65;46.62;99742.94;5033582;28;20056;-87
2021/08/23 00:29:57;;;;;;;6.65;4.95;;;;;;;25.65;47.08;99750.94;5033507;28;20045;-87
2021/08/23 00:32:24;;;;;;;6.35;5.15;;;;;;;25.86;46.41;99752.88;5033370;28;20049;-87
2021/08/23 00:34:51;;;;;;;6.72;5.55;;;;;;;25.80;46.47;99756.28;5032997;28;20048;-87
2021/08/23 00:37:18;;;;;;;9.25;5.15;;;;;;;25.54;47.27;99768.25;5033341;28;20103;-87
2021/08/23 00:39:44;;;;;;;5.60;5.07;;;;;;;25.33;47.86;99760.16;5032718;28;20091;-87
2021/08/23 00:42:11;;;;;;;7.63;4.72;;;;;;;25.39;47.85;99762.09;5032926;28;20045;-87
2021/08/23 00:44:40;;;;;;;9.45;6.07;;;;;;;25.45;47.83;99771.19;5033296;28;20064;-86
2021/08/23 00:47:07;;;;;;;7.25;5.45;;;;;;;24.89;47.40;99784.91;5032492;28;20103;-86
2021/08/23 00:49:34;;;;;;;6.97;5.68;;;;;;;24.53;47.52;99782.84;5031549;28;20558;-86
2021/08/23 00:52:02;;;;;;;8.02;5.10;;;;;;;24.96;45.89;99777.84;5032772;28;20045;-87
2021/08/23 00:54:29;;;;;;;6.60;4.78;;;;;;;24.87;45.83;99783.41;5033077;28;20052;-85
2021/08/23 00:56:56;;;;;;;7.20;5.38;;;;;;;24.91;46.00;99782.06;5032782;28;20080;-86
2021/08/23 00:59:26;;;;;;;10.05;5.07;;;;;;;24.91;46.13;99785.53;5031666;28;20042;-86
2021/08/23 01:01:56;;;;;;;11.15;5.10;;;;;;;24.73;46.42;99785.88;5032354;28;20072;-85
2021/08/23 01:04:43;;;;;;;10.18;5.00;;;;;;;24.81;46.06;99785.78;5032674;28;20045;-84
2021/08/23 01:07:14;;;;;;;5.10;4.47;;;;;;;24.96;46.05;99785.00;5032254;28;20488;-85
2021/08/23 01:09:55;;;;;;;8.70;4.90;;;;;;;24.82;46.20;99781.28;5032558;28;20447;-84
2021/08/23 01:12:25;;;;;;;9.63;5.80;;;;;;;24.72;46.62;99778.06;5032436;28;20041;-85
2021/08/23 01:14:52;;;;;;;9.35;5.03;;;;;;;24.69;46.78;99778.41;5030845;28;20443;-86
2021/08/23 01:17:19;;;;;;;9.02;5.72;;;;;;;25.09;46.38;99779.94;5024842;28;20095;-87
2021/08/23 01:19:52;;;;;;;7.57;4.88;;;;;;;24.79;46.04;99773.66;5029357;28;20049;-87
2021/08/23 01:22:19;;;;;;;12.38;4.82;;;;;;;24.81;46.42;99775.13;5032349;28;20049;-88
2021/08/23 01:24:52;;;;;;;7.93;4.70;;;;;;;24.96;46.24;99772.50;5031434;28;20107;-88
2021/08/23 01:27:20;;;;;;;6.25;5.22;;;;;;;24.95;46.64;99776.19;5032237;28;20038;-88
2021/08/23 01:29:55;;;;;;;5.97;5.38;;;;;;;24.97;46.85;99776.81;5037056;28;20053;-88
2021/08/23 01:32:26;;;;;;;9.02;5.18;;;;;;;24.98;47.32;99778.50;5038398;28;20087;-88
2021/08/23 01:34:56;;;;;;;6.00;4.93;;;;;;;24.90;47.74;99778.56;5038466;28;20439;-88
2021/08/23 01:37:24;;;;;;;7.68;5.97;;;;;;;24.76;48.10;99776.69;5032356;28;20045;-88
2021/08/23 01:39:52;;;;;;;7.30;4.50;;;;;;;25.00;47.32;99773.81;5036868;28;20510;-88
2021/08/23 01:42:18;;;;;;;5.78;4.38;;;;;;;24.88;47.88;99774.44;5038397;28;20076;-88
2021/08/23 01:44:46;;;;;;;10.00;5.65;;;;;;;24.69;48.41;99773.91;5038619;28;20072;-87
2021/08/23 01:47:12;;;;;;;6.97;4.30;;;;;;;24.71;48.36;99776.38;5036792;28;20103;-87
2021/08/23 01:49:40;;;;;;;7.03;4.60;;;;;;;24.53;49.34;99777.53;5038493;28;20045;-87
2021/08/23 01:52:11;;;;;;;8.98;4.72;;;;;;;24.87;48.41;99778.91;5037953;28;20095;-87
2021/08/23 01:54:42;;;;;;;6.63;5.35;;;;;;;24.81;49.12;99766.31;5038603;28;20477;-86
2021/08/23 01:57:20;;;;;;;5.97;4.72;;;;;;;24.72;49.63;99773.56;5037932;28;20041;-86
2021/08/23 01:59:48;;;;;;;8.40;4.72;;;;;;;24.70;49.85;99764.06;5038878;28;20103;-86
2021/08/23 02:02:15;;;;;;;6.20;5.10;;;;;;;24.50;50.75;99767.25;5038487;28;20099;-87
2021/08/23 02:04:42;;;;;;;4.70;4.28;;;;;;;24.69;49.99;99765.09;5038838;28;20048;-86
2021/08/23 02:07:09;;;;;;;8.52;5.50;;;;;;;24.78;49.66;99772.84;5038322;28;20123;-88
2021/08/23 02:09:35;;;;;;;34.42;5.93;;;;;;;24.74;50.24;99768.03;5038796;28;20041;-88
2021/08/23 02:12:03;;;;;;;6.55;4.75;;;;;;;24.89;49.93;99766.25;5023235;28;20084;-87
2021/08/23 02:14:30;;;;;;;6.68;5.10;;;;;;;24.57;51.12;99770.00;5038521;28;20038;-87
2021/08/23 02:16:57;;;;;;;5.40;4.50;;;;;;;24.49;51.76;99765.56;5038567;28;20119;-88
2021/08/23 02:19:24;;;;;;;6.55;5.00;;;;;;;24.61;51.43;99768.66;5053304;28;20076;-88
2021/08/23 02:21:55;;;;;;;5.30;4.20;;;;;;;24.70;51.16;99770.22;5037377;28;20049;-88
2021/08/23 02:24:23;;;;;;;8.25;4.90;;;;;;;24.54;51.98;99759.69;5038324;28;20041;-87
2021/08/23 02:26:51;;;;;;;6.22;5.43;;;;;;;24.61;51.63;99762.47;5038691;28;20534;-86
2021/08/23 02:29:17;;;;;;;7.22;5.95;;;;;;;24.76;51.19;99763.34;5038240;28;20061;-87
2021/08/23 02:31:45;;;;;;;5.50;4.95;;;;;;;24.74;51.22;99760.03;5038335;28;20045;-87
2021/08/23 02:34:11;;;;;;;5.97;5.28;;;;;;;24.50;51.88;99756.59;5038241;28;20069;-89
2021/08/23 02:36:38;;;;;;;7.80;4.53;;;;;;;24.45;51.75;99758.97;5038291;28;20106;-88
2021/08/23 02:39:05;;;;;;;9.02;4.88;;;;;;;24.46;51.15;99755.28;5038608;28;20045;-88
2021/08/23 02:41:32;;;;;;;6.10;5.35;;;;;;;24.55;50.87;99754.22;5034853;28;20041;-87
2021/08/23 02:43:59;;;;;;;7.03;5.45;;;;;;;24.45;50.69;99763.44;5035036;28;20038;-87
2021/08/23 02:46:26;;;;;;;9.05;5.07;;;;;;;24.44;50.32;99761.78;5033570;28;20436;-88
2021/08/23 02:48:53;;;;;;;9.75;5.45;;;;;;;24.58;50.15;99762.84;5035359;28;20034;-87
2021/08/23 02:51:20;;;;;;;5.28;4.65;;;;;;;24.49;49.75;99765.56;5034371;28;20045;-87
2021/08/23 02:53:47;;;;;;;14.32;6.47;;;;;;;24.58;49.17;99768.19;5035302;28;20049;-88
2021/08/23 02:56:13;;;;;;;9.48;5.70;;;;;;;24.56;48.81;99763.03;5034491;28;20484;-87
2021/08/23 02:58:40;;;;;;;9.25;4.93;;;;;;;24.51;48.19;99762.75;5034899;28;20038;-85
2021/08/23 03:01:07;;;;;;;8.77;5.25;;;;;;;24.50;48.23;99767.25;5034947;28;20451;-86
2021/08/23 03:03:36;;;;;;;10.80;5.20;;;;;;;24.78;47.62;99766.69;5033187;28;20103;-87
2021/08/23 03:06:03;;;;;;;10.70;5.95;;;;;;;24.59;48.43;99762.66;5034945;28;20104;-86
2021/08/23 03:08:30;;;;;;;6.82;4.82;;;;;;;24.60;48.59;99768.81;5034710;28;20041;-84
2021/08/23 03:11:11;;;;;;;9.52;5.50;;;;;;;24.69;48.81;99776.56;5034506;28;20037;-85
2021/08/23 03:13:42;;;;;;;8.35;5.70;;;;;;;24.75;49.12;99775.03;5034380;28;20104;-84
2021/08/23 03:16:11;;;;;;;6.28;4.43;;;;;;;24.77;49.27;99767.69;5034497;28;20480;-82
2021/08/23 03:18:37;;;;;;;7.72;5.43;;;;;;;24.79;48.51;99761.16;5034091;28;20088;-82
2021/08/23 03:21:05;;;;;;;8.70;4.68;;;;;;;24.98;48.74;99758.97;5034861;28;20076;-81
2021/08/23 03:23:32;;;;;;;6.03;4.43;;;;;;;24.87;49.36;99760.25;5033935;28;20045;-80
2021/08/23 03:26:01;;;;;;;10.98;4.68;;;;;;;24.89;49.30;99766.25;5034046;28;20042;-83
2021/08/23 03:28:28;;;;;;;9.38;5.75;;;;;;;24.67;49.50;99759.94;5034456;28;20041;-84
2021/08/23 03:30:55;;;;;;;8.88;5.38;;;;;;;24.56;49.44;99755.88;5034030;28;20041;-82
2021/08/23 03:33:22;;;;;;;9.75;4.70;;;;;;;24.37;50.69;99755.50;5033994;28;20496;-84
2021/08/23 03:35:49;;;;;;;6.07;4.95;;;;;;;24.41;50.83;99764.81;5034277;28;20037;-84
2021/08/23 03:38:16;;;;;;;9.13;5.85;;;;;;;24.68;49.96;99763.44;5034512;28;20042;-84
2021/08/23 03:40:42;;;;;;;9.55;4.63;;;;;;;24.68;49.74;99766.94;5033716;28;20048;-84
2021/08/23 03:43:09;;;;;;;5.88;4.72;;;;;;;24.46;50.61;99763.28;5034429;28;20041;-84
2021/08/23 03:45:36;;;;;;;9.43;4.70;;;;;;;24.71;49.60;99769.22;5033681;28;20484;-84
2021/08/23 03:48:03;;;;;;;9.48;5.32;;;;;;;24.51;50.61;99758.25;5033864;28;20042;-84
2021/08/23 03:50:29;;;;;;;6.35;4.90;;;;;;;24.58;50.06;99763.66;5033543;28;20413;-85
2021/08/23 03:52:56;;;;;;;6.60;5.25;;;;;;;24.59;50.29;99767.16;5032474;28;20045;-85
2021/08/23 03:55:23;;;;;;;7.72;5.43;;;;;;;24.48;50.97;99769.25;5032539;28;20049;-84
2021/08/23 03:57:50;;;;;;;6.18;5.53;;;;;;;24.51;50.83;99765.41;5033756;28;20052;-84
2021/08/23 04:00:17;;;;;;;8.65;4.90;;;;;;;24.47;51.22;99769.44;5033805;28;20095;-85
2021/08/23 04:02:45;;;;;;;9.15;4.80;;;;;;;24.69;50.37;99765.91;5033219;28;20483;-84
2021/08/23 04:05:12;;;;;;;8.27;4.80;;;;;;;24.75;50.29;99767.84;5033922;28;20046;-85
2021/08/23 04:07:39;;;;;;;7.88;5.00;;;;;;;24.87;50.33;99765.56;5033605;28;20479;-84
2021/08/23 04:10:07;;;;;;;13.40;5.90;;;;;;;24.83;50.39;99767.78;5033684;28;20046;-83
2021/08/23 04:12:34;;;;;;;8.27;4.88;;;;;;;24.81;50.67;99766.31;5031903;28;20037;-83
2021/08/23 04:15:01;;;;;;;6.57;5.53;;;;;;;24.88;50.96;99777.94;5033273;28;20073;-84
2021/08/23 04:17:27;;;;;;;10.50;5.53;;;;;;;24.85;51.40;99772.94;5033538;28;20092;-85
2021/08/23 04:19:54;;;;;;;11.20;5.70;;;;;;;24.55;54.01;99770.19;5033001;28;20400;-85
2021/08/23 04:22:21;;;;;;;10.02;5.40;;;;;;;24.22;55.99;99777.53;5033337;28;20416;-86
2021/08/23 04:24:47;;;;;;;10.88;6.22;;;;;;;24.55;54.56;99780.88;5033116;28;20046;-86
2021/08/23 04:27:14;;;;;;;11.15;6.00;;;;;;;24.51;54.23;99770.72;5033239;28;20033;-86
2021/08/23 04:29:41;;;;;;;14.68;5.68;;;;;;;24.78;53.19;99758.69;5032683;28;20042;-86
2021/08/23 04:32:09;;;;;;;9.35;5.35;;;;;;;24.67;54.47;99764.44;5033102;28;20527;-87
2021/08/23 04:34:36;;;;;;;8.88;5.35;;;;;;;24.63;53.37;99761.31;5031512;28;20037;-86
2021/08/23 04:37:04;;;;;;;20.40;6.35;;;;;;;24.61;54.53;99770.47;5031754;28;20449;-85
2021/08/23 04:39:31;;;;;;;6.70;5.90;;;;;;;24.49;56.37;99778.88;5031813;28;20096;-85
2021/08/23 04:41:59;;;;;;;8.48;5.28;;;;;;;24.49;57.80;99781.53;5032558;28;20115;-86
2021/08/23 04:44:27;;;;;;;9.85;6.63;;;;;;;24.58;57.62;99781.50;5033185;28;20051;-86
2021/08/23 04:46:54;;;;;;;11.98;7.30;;;;;;;24.28;60.72;99781.31;5032829;28;20042;-86
2021/08/23 04:49:21;;;;;;;9.27;6.22;;;;;;;24.40;60.55;99784.47;5032675;28;20075;-85
2021/08/23 04:51:48;;;;;;;10.85;7.05;;;;;;;24.10;62.51;99786.94;5032487;28;20492;-86
2021/08/23 04:54:14;;;;;;;15.02;6.85;;;;;;;24.51;60.63;99781.38;5032797;28;20484;-86
2021/08/23 04:56:41;;;;;;;15.00;7.00;;;;;;;24.67;59.32;99777.78;5032526;28;20037;-86
2021/08/23 04:59:08;;;;;;;16.70;7.82;;;;;;;24.54;59.89;99776.50;5032838;28;20091;-86
2021/08/23 05:01:35;;;;;;;10.30;6.13;;;;;;;24.24;61.14;99786.19;5032253;28;20111;-85
2021/08/23 05:04:02;;;;;;;14.93;6.50;;;;;;;24.43;60.24;99789.44;5031079;28;20103;-86
2021/08/23 05:06:28;;;;;;;15.00;6.55;;;;;;;24.63;59.55;99792.44;5032477;28;20050;-86
2021/08/23 05:08:55;;;;;;;11.38;5.63;;;;;;;24.36;61.14;99791.16;5032435;28;20049;-84
2021/08/23 05:11:22;;;;;;;19.13;7.07;;;;;;;24.27;60.41;99795.66;5032370;28;20460;-85
2021/08/23 05:13:50;;;;;;;9.13;5.32;;;;;;;24.41;59.84;99797.59;5032287;28;20050;-83
2021/08/23 05:16:17;;;;;;;10.85;5.70;;;;;;;24.19;60.80;99801.06;5032463;28;20041;-85
2021/08/23 05:18:45;;;;;;;12.65;5.93;;;;;;;23.87;61.63;99797.53;5032204;28;20041;-84
2021/08/23 05:21:12;;;;;;;7.95;5.60;;;;;;;24.02;61.37;99801.13;5032284;28;20049;-84
2021/08/23 05:23:38;;;;;;;11.65;6.10;;;;;;;24.04;61.80;99804.44;5032336;28;20075;-84
2021/08/23 05:26:09;;;;;;;6.88;5.22;;;;;;;24.13;61.63;99797.25;5032444;28;20034;-85
2021/08/23 05:28:36;;;;;;;10.43;6.60;;;;;;;24.07;62.79;99802.44;5032285;28;20107;-83
2021/08/23 05:31:03;;;;;;;12.38;5.60;;;;;;;24.16;62.16;99796.06;5032162;28;20049;-82
2021/08/23 05:33:30;;;;;;;17.58;6.35;;;;;;;24.11;61.88;99793.91;5032267;28;20046;-81
2021/08/23 05:35:57;;;;;;;9.07;5.88;;;;;;;24.13;61.91;99791.94;5031944;28;20087;-83
2021/08/23 05:38:23;;;;;;;17.38;6.97;;;;;;;24.38;61.12;99794.44;5032422;28;20099;-83
2021/08/23 05:40:50;;;;;;;10.05;5.30;;;;;;;24.37;60.88;99792.81;5031732;28;20550;-83
2021/08/23 05:43:17;;;;;;;9.32;5.32;;;;;;;24.36;60.91;99788.50;5032550;28;20449;-84
2021/08/23 05:45:44;;;;;;;15.88;6.35;;;;;;;24.21;61.11;99788.38;5032089;28;20452;-83
2021/08/23 05:48:11;;;;;;;9.93;5.85;;;;;;;24.39;60.33;99788.13;5032193;28;20454;-83
2021/08/23 05:50:38;;;;;;;13.27;5.97;;;;;;;24.40;59.63;99787.13;5031553;28;20045;-83
2021/08/23 05:53:05;;;;;;;13.45;5.97;;;;;;;24.37;59.52;99788.31;5032073;28;20042;-84
2021/08/23 05:55:32;;;;;;;9.73;6.40;;;;;;;24.38;59.28;99789.97;5032477;28;20392;-82
2021/08/23 05:57:58;;;;;;;14.30;5.55;;;;;;;24.49;58.83;99781.53;5031748;28;20046;-81
2021/08/23 06:00:25;;;;;;;8.75;5.63;;;;;;;24.49;58.36;99786.88;5031852;28;20041;-81
2021/08/23 06:02:52;;;;;;;11.75;5.88;;;;;;;24.42;58.56;99785.94;5031569;28;20045;-82
2021/08/23 06:05:19;;;;;;;7.68;5.93;;;;;;;24.58;58.41;99784.16;5027458;28;20092;-82
2021/08/23 06:07:46;;;;;;;15.05;6.97;;;;;;;24.54;58.37;99783.69;5023140;28;20076;-81
2021/08/23 06:10:13;;;;;;;8.82;6.45;;;;;;;24.71;57.65;99782.53;5030153;28;20045;-81
2021/08/23 06:12:42;;;;;;;12.38;6.28;;;;;;;24.77;57.08;99783.69;5031361;28;20057;-81
2021/08/23 06:15:09;;;;;;;6.55;5.93;;;;;;;24.92;57.20;99781.84;5031088;28;20391;-78
2021/08/23 06:17:36;;;;;;;8.18;6.13;;;;;;;25.06;56.70;99783.78;5034580;28;20041;-82
2021/08/23 06:20:04;;;;;;;9.45;6.55;;;;;;;25.17;56.68;99790.50;5034231;28;20442;-81
2021/08/23 06:22:32;;;;;;;10.38;6.60;;;;;;;25.21;57.28;99790.97;5034666;28;20099;-83
2021/08/23 06:24:59;;;;;;;17.77;7.57;;;;;;;25.20;57.31;99800.00;5034720;28;20047;-82
2021/08/23 06:27:25;;;;;;;13.45;6.78;;;;;;;25.39;56.59;99799.44;5035284;28;20346;-89
2021/08/23 06:29:52;;;;;;;7.10;6.38;;;;;;;25.43;56.92;99800.72;5034812;28;20099;-86
2021/08/23 06:32:20;;;;;;;14.98;5.95;;;;;;;25.48;56.75;99798.34;5033972;28;20045;-80
2021/08/23 06:34:47;;;;;;;9.63;6.65;;;;;;;25.44;57.35;99802.38;5031596;28;20037;-88
2021/08/23 06:37:13;;;;;;;12.32;7.18;;;;;;;25.48;57.32;99797.53;5031625;28;20078;-87
2021/08/23 06:39:40;;;;;;;8.27;6.30;;;;;;;25.55;57.26;99791.25;5031591;28;20500;-86
2021/08/23 06:42:07;;;;;;;14.43;6.15;;;;;;;25.57;57.08;99786.56;5048498;28;20041;-86
2021/08/23 06:44:34;;;;;;;9.98;6.57;;;;;;;25.46;57.42;99779.03;5031748;28;20048;-86
2021/08/23 06:47:00;;;;;;;10.05;6.95;;;;;;;25.53;57.46;99787.94;5031557;28;20045;-87
2021/08/23 06:49:27;;;;;;;11.50;7.07;;;;;;;25.42;57.80;99788.41;5032910;28;20048;-89
2021/08/23 06:51:54;;;;;;;11.75;7.78;;;;;;;25.53;58.15;99790.63;5033783;28;20042;-86
2021/08/23 06:54:21;;;;;;;12.73;6.75;;;;;;;25.63;57.27;99794.84;5034805;28;20049;-86
2021/08/23 06:56:47;;;;;;;15.00;6.95;;;;;;;25.70;57.15;99790.41;5034042;28;20481;-86
2021/08/23 06:59:14;;;;;;;7.03;5.60;;;;;;;25.87;57.05;99791.91;5034579;28;20068;-86
2021/08/23 07:01:41;;;;;;;8.13;6.65;;;;;;;25.83;57.32;99778.13;5033915;28;20045;-84
2021/08/23 07:04:08;;;;;;;11.68;6.80;;;;;;;26.00;56.51;99781.38;5034430;28;20037;-84
2021/08/23 07:06:35;;;;;;;13.65;6.90;;;;;;;25.80;57.52;99786.47;5034217;28;20045;-84
2021/08/23 07:09:02;;;;;;;9.57;7.25;;;;;;;25.23;59.83;99796.94;5034383;28;20042;-82
2021/08/23 07:11:29;;;;;;;12.38;7.50;;;;;;;25.50;59.43;99787.47;5034607;28;20053;-83
2021/08/23 07:13:56;;;;;;;10.15;8.23;;;;;;;25.16;61.86;99796.03;5034351;28;20429;-83
2021/08/23 07:16:23;;;;;;;13.38;8.90;;;;;;;25.31;61.68;99791.53;5034901;28;20041;-82
2021/08/23 07:18:50;;;;;;;14.75;9.70;;;;;;;25.10;65.66;99804.75;5034629;28;20045;-83
2021/08/23 07:21:17;;;;;;;12.77;10.18;;;;;;;24.96;67.06;99801.81;5033357;28;20061;-84
2021/08/23 07:23:43;;;;;;;12.10;8.98;;;;;;;25.52;63.59;99804.16;5034138;28;20037;-83
2021/08/23 07:26:10;;;;;;;12.15;8.80;;;;;;;25.16;62.36;99820.03;5033914;28;20046;-85
2021/08/23 07:28:37;;;;;;;14.23;10.07;;;;;;;25.30;63.37;99822.72;5034367;28;20099;-85
2021/08/23 07:31:04;;;;;;;12.65;8.80;;;;;;;25.39;62.70;99817.28;5033776;28;20049;-83
2021/08/23 07:33:31;;;;;;;12.00;9.35;;;;;;;25.45;62.33;99817.38;5033908;28;20120;-84
2021/08/23 07:35:58;;;;;;;16.48;9.50;;;;;;;25.59;61.64;99818.41;5033016;28;20038;-85
2021/08/23 07:38:26;;;;;;;9.07;7.45;;;;;;;25.76;60.96;99821.75;5033306;28;20045;-84
2021/08/23 07:40:53;;;;;;;12.13;8.52;;;;;;;25.76;60.83;99819.06;5030377;28;20038;-86
2021/08/23 07:43:19;;;;;;;10.40;6.90;;;;;;;25.69;60.98;99820.81;5032984;28;20451;-84
2021/08/23 07:45:47;;;;;;;17.42;8.77;;;;;;;25.86;59.35;99816.94;5032825;28;20076;-86
2021/08/23 07:48:15;;;;;;;10.55;7.93;;;;;;;25.83;59.51;99822.66;5030490;28;20488;-86
2021/08/23 07:50:41;;;;;;;10.38;7.55;;;;;;;25.73;59.48;99824.78;5026789;28;20463;-86
2021/08/23 07:53:11;;;;;;;9.70;6.32;;;;;;;25.72;59.72;99823.09;5031613;28;20124;-86
2021/08/23 07:55:38;;;;;;;9.63;7.38;;;;;;;25.81;59.51;99830.03;5028812;28;20041;-85
2021/08/23 07:58:05;;;;;;;7.88;7.05;;;;;;;26.02;59.54;99822.09;5030312;28;20049;-83
2021/08/23 08:00:32;;;;;;;9.68;7.63;;;;;;;25.95;59.90;99831.03;5029105;28;20037;-83
2021/08/23 08:02:59;;;;;;;8.55;7.43;;;;;;;25.82;59.94;99831.69;5026451;28;20508;-83
2021/08/23 08:05:26;;;;;;;14.80;8.43;;;;;;;25.57;61.76;99839.94;5030125;28;20083;-83
2021/08/23 08:07:52;;;;;;;9.93;8.40;;;;;;;25.59;61.14;99842.44;5030025;28;20049;-84
2021/08/23 08:10:20;;;;;;;13.30;8.48;;;;;;;25.71;61.46;99842.78;5029273;28;20048;-83
2021/08/23 08:12:47;;;;;;;11.70;6.40;;;;;;;25.13;63.19;99852.38;5030906;28;20033;-82
2021/08/23 08:15:14;;;;;;;8.10;5.15;;;;;;;24.79;64.26;99840.31;5030112;28;21960;-83
2021/08/23 08:17:40;;;;;;;11.63;5.88;;;;;;;25.22;62.88;99845.97;5054271;28;20033;-83
2021/08/23 08:20:10;;;;;;;7.13;5.22;;;;;;;25.58;60.40;99838.09;5030738;28;20048;-82
2021/08/23 08:22:38;;;;;;;15.73;6.88;;;;;;;25.12;61.40;99848.06;5030552;28;20067;-82
2021/08/23 08:25:06;;;;;;;7.50;4.90;;;;;;;25.08;62.09;99845.75;5029532;28;20042;-82
2021/08/23 08:27:33;;;;;;;6.50;4.53;;;;;;;25.45;60.18;99854.72;5028995;28;20045;-82
2021/08/23 08:29:59;;;;;;;5.47;4.03;;;;;;;25.58;59.38;99851.44;5028881;28;20387;-84
2021/08/23 08:32:26;;;;;;;5.95;4.13;;;;;;;25.91;57.78;99853.78;5028634;28;20095;-83
2021/08/23 08:34:53;;;;;;;7.05;3.72;;;;;;;25.60;56.96;99855.59;5023321;28;20326;-83
2021/08/23 08:37:20;;;;;;;6.82;3.50;;;;;;;25.47;57.26;99850.06;5027155;28;20049;-82
2021/08/23 08:39:47;;;;;;;16.35;3.67;;;;;;;25.61;56.94;99865.25;5027050;28;20053;-82
2021/08/23 08:42:17;;;;;;;6.18;3.10;;;;;;;25.69;57.14;99852.84;5029040;28;20496;-81
2021/08/23 08:44:45;;;;;;;7.03;3.70;;;;;;;25.50;57.36;99859.53;5030627;28;20033;-83
2021/08/23 08:47:19;;;;;;;8.20;3.10;;;;;;;25.73;56.98;99870.16;5029058;28;20045;-81
2021/08/23 08:49:46;;;;;;;;;;;;;;;25.87;56.03;99872.00;5030543;28;20045;-81
2021/08/23 08:52:14;;;;;;;5.45;3.47;;;;;;;25.68;56.65;99864.53;5031559;28;20016;-83
2021/08/23 08:54:44;;;;;;;5.03;3.05;;;;;;;25.96;55.42;99854.88;5032013;28;20113;-82
2021/08/23 08:57:11;;;;;;;6.13;3.42;;;;;;;26.19;55.04;99860.09;5025863;28;20042;-82
2021/08/23 08:59:38;;;;;;;4.18;3.22;;;;;;;25.83;55.84;99870.72;5026380;28;20060;-82
2021/08/23 09:02:05;;;;;;;7.25;3.47;;;;;;;25.37;57.47;99886.84;5028262;28;20088;-82
2021/08/23 09:04:35;;;;;;;3.42;3.13;;;;;;;25.55;57.24;99894.50;5024871;28;20412;-82
2021/08/23 09:07:07;;;;;;;4.50;3.10;;;;;;;25.45;57.20;99878.75;5027940;28;20404;-81
2021/08/23 09:09:35;;;;;;;6.35;3.58;;;;;;;25.47;57.56;99882.09;5027946;28;20034;-82
2021/08/23 09:12:10;;;;;;;4.65;3.17;;;;;;;25.06;58.79;99892.28;5028452;28;20064;-84
2021/08/23 09:14:54;;;;;;;6.28;4.18;;;;;;;24.85;59.86;99884.06;5029572;28;20072;-83
2021/08/23 09:17:23;;;;;;;9.63;3.92;;;;;;;25.21;58.53;99879.81;5028261;28;20049;-83
2021/08/23 09:20:01;;;;;;;4.35;3.50;;;;;;;25.15;58.60;99882.38;5029631;28;20164;-82
2021/08/23 09:22:28;;;;;;;3.72;2.70;;;;;;;24.79;59.15;99875.78;5028623;28;20138;-81
2021/08/23 09:25:05;;;;;;;6.68;2.53;;;;;;;25.02;58.47;99878.44;5029962;28;20037;-82
2021/08/23 09:27:32;;;;;;;8.38;2.90;;;;;;;24.93;58.08;99895.53;5028952;28;20476;-82
2021/08/23 09:30:01;;;;;;;7.97;2.65;;;;;;;24.95;57.61;99909.50;5029527;28;20034;-82
2021/08/23 09:32:30;;;;;;;8.98;2.00;;;;;;;25.10;56.79;99914.09;5029924;28;20041;-83
2021/08/23 09:34:58;;;;;;;4.95;2.35;;;;;;;25.15;55.78;99906.38;5040021;28;20396;-83
2021/08/23 09:37:27;;;;;;;3.20;2.25;;;;;;;25.21;55.96;99903.00;5026157;28;20431;-83
2021/08/23 09:39:54;;;;;;;3.90;2.13;;;;;;;25.04;55.53;99894.28;5027677;28;20488;-82
2021/08/23 09:42:25;;;;;;;4.57;2.03;;;;;;;25.11;55.29;99899.75;5029213;28;20046;-82
2021/08/23 09:44:53;;;;;;;5.15;2.30;;;;;;;25.30;54.95;99894.75;5025648;28;20399;-83
2021/08/23 09:47:30;;;;;;;5.63;2.80;;;;;;;25.35;54.11;99904.84;5028519;28;20057;-84
2021/08/23 09:49:57;;;;;;;10.65;2.38;;;;;;;25.45;53.64;99907.28;5023306;28;20377;-84
2021/08/23 09:52:36;;;;;;;5.50;2.22;;;;;;;25.22;54.62;99916.16;5031624;28;20038;-86
2021/08/23 09:55:08;;;;;;;4.53;2.35;;;;;;;25.03;55.42;99917.41;5027227;28;20182;-81
2021/08/23 09:57:41;;;;;;;2.80;1.83;;;;;;;24.95;55.57;99919.34;5029462;28;20038;-80
2021/08/23 10:00:14;;;;;;;2.70;1.83;;;;;;;24.94;55.95;99913.19;5050619;28;20049;-84
2021/08/23 10:02:48;;;;;;;4.50;1.92;;;;;;;25.03;55.93;99906.75;5034273;28;20041;-83
2021/08/23 10:05:16;;;;;;;;;;;;;;;24.89;56.15;99904.06;5035533;28;20037;-83
2021/08/23 10:07:43;;;;;;;3.25;2.05;;;;;;;24.75;57.08;99909.13;5034645;28;19921;-83
2021/08/23 10:10:10;;;;;;;3.33;2.60;;;;;;;24.71;57.67;99906.97;5034992;28;20037;-82
2021/08/23 10:12:37;;;;;;;4.68;3.00;;;;;;;24.58;60.88;99909.41;5035099;28;20086;-83
2021/08/23 10:15:05;;;;;;;6.60;2.90;;;;;;;24.50;60.22;99896.94;5032634;28;20033;-83
2021/08/23 10:17:36;;;;;;;13.43;3.78;;;;;;;24.33;62.01;99890.00;5034342;28;20037;-83
2021/08/23 10:20:09;;;;;;;4.32;2.20;;;;;;;24.76;59.81;99884.13;5035007;28;20095;-83
2021/08/23 10:22:38;;;;;;;3.85;2.05;;;;;;;24.38;64.34;99879.69;5034694;28;20064;-83
2021/08/23 10:25:08;;;;;;;6.05;2.03;;;;;;;24.21;67.00;99889.56;5032308;28;20034;-84
2021/08/23 10:27:39;;;;;;;3.55;2.10;;;;;;;24.48;63.17;99886.47;5032548;28;20629;-83
2021/08/23 10:30:08;;;;;;;7.30;2.25;;;;;;;24.46;66.57;99877.84;5033727;28;20042;-84
2021/08/23 10:32:39;;;;;;;3.50;2.28;;;;;;;24.47;64.43;99874.16;5035040;28;20507;-83
2021/08/23 10:35:25;;;;;;;2.65;2.33;;;;;;;24.47;66.61;99879.47;5049682;28;20034;-85
2021/08/23 10:37:54;;;;;;;3.00;2.20;;;;;;;24.36;67.01;99887.88;5033523;28;20042;-86
2021/08/23 10:40:24;;;;;;;5.22;2.35;;;;;;;24.23;66.94;99883.06;5031730;28;20124;-82
2021/08/23 10:42:51;;;;;;;7.22;2.50;;;;;;;24.45;64.41;99886.84;5034730;28;20069;-81
2021/08/23 10:45:19;;;;;;;2.85;2.42;;;;;;;24.78;62.08;99887.47;5049899;28;20558;-84
2021/08/23 10:47:47;;;;;;;3.50;2.15;;;;;;;24.45;64.90;99876.19;5031668;28;20049;-85
2021/08/23 10:50:22;;;;;;;6.25;2.60;;;;;;;24.80;61.26;99868.59;5033894;28;20045;-85
2021/08/23 10:52:50;;;;;;;4.35;2.70;;;;;;;24.93;60.21;99871.53;5030329;28;20119;-85
2021/08/23 10:55:26;;;;;;;5.30;2.10;;;;;;;24.84;61.21;99861.91;5027388;28;20041;-84
2021/08/23 10:58:07;;;;;;;4.78;2.20;;;;;;;24.75;61.28;99865.66;5029555;28;20065;-87
2021/08/23 11:00:42;;;;;;;3.97;2.70;;;;;;;24.87;59.92;99866.88;5029372;28;20073;-86
2021/08/23 11:03:10;;;;;;;6.10;2.70;;;;;;;24.71;61.27;99867.00;5029016;28;20042;-83
2021/08/23 11:05:38;;;;;;;4.82;2.88;;;;;;;24.61;61.74;99874.38;5028915;28;20046;-83
2021/08/23 11:08:12;;;;;;;4.63;2.45;;;;;;;24.51;62.97;99883.47;5028764;28;20572;-88
2021/08/23 11:10:40;;;;;;;3.67;2.65;;;;;;;24.42;62.72;99900.50;5027231;28;20046;-81
2021/08/23 11:13:16;;;;;;;6.78;2.63;;;;;;;24.26;63.70;99911.19;5029281;28;20488;-85
2021/08/23 11:15:45;;;;;;;3.38;2.80;;;;;;;24.35;63.14;99906.66;5031495;28;20511;-83
2021/08/23 11:18:14;;;;;;;3.78;2.22;;;;;;;24.31;62.42;99908.84;5031413;28;20068;-85
2021/08/23 11:20:44;;;;;;;6.03;3.72;;;;;;;24.26;62.49;99911.19;5030902;28;20053;-84
2021/08/23 11:23:22;;;;;;;3.05;2.53;;;;;;;24.31;62.69;99906.19;5026543;28;20033;-87
2021/08/23 11:25:51;;;;;;;12.68;3.17;;;;;;;24.12;64.03;99903.91;5026826;28;20092;-88
2021/08/23 11:28:29;;;;;;;3.75;2.63;;;;;;;24.16;64.87;99900.75;5029969;28;20087;-89
2021/08/23 11:31:04;;;;;;;10.52;3.50;;;;;;;24.34;63.61;99907.66;5031716;28;20041;-87
2021/08/23 11:33:37;;;;;;;7.75;2.85;;;;;;;24.36;63.21;99905.69;5027999;28;20048;-84
2021/08/23 11:36:18;;;;;;;4.10;3.45;;;;;;;24.10;64.32;99903.28;5025902;28;20041;-86